Time;durP1;ratioP1;P1;durP2;ratioP2;P2;SDS_P1;SDS_P2;PMS_P1;PMS_P2;Temp;Humidity;BMP_temperature;BMP_pressure;BME280_temperature;BME280_humidity;BME280_pressure;Samples;Min_cycle;Max_cycle;Signal;HPM_P1;HPM_P2
2024/01/30 00:01:25;;;;;;;17.00;13.73;;;7.00;99.90;;;;;;4914019;29;20079;-81
2024/01/30 00:03:51;;;;;;;15.90;13.18;;;6.90;99.90;;;;;;4903154;29;20419;-82
2024/01/30 00:06:23;;;;;;;18.33;13.88;;;7.00;99.90;;;;;;4920574;29;20043;-82
2024/01/30 00:08:49;;;;;;;15.95;14.27;;;7.00;99.90;;;;;;4913208;29;20057;-82
2024/01/30 00:11:16;;;;;;;16.95;14.77;;;7.00;99.90;;;;;;4924096;29;20384;-82
2024/01/30 00:13:43;;;;;;;19.05;13.85;;;7.00;99.90;;;;;;4889970;29;20058;-82
2024/01/30 00:16:09;;;;;;;15.88;13.48;;;7.00;99.90;;;;;;4921739;29;20451;-80
2024/01/30 00:18:35;;;;;;;16.77;13.45;;;7.00;99.90;;;;;;4905916;29;20416;-81
2024/01/30 00:21:01;;;;;;;18.85;14.15;;;7.00;99.90;;;;;;4905209;29;20023;-81
2024/01/30 00:23:27;;;;;;;16.90;13.95;;;7.20;99.90;;;;;;4916108;29;20048;-82
2024/01/30 00:25:52;;;;;;;16.13;13.98;;;7.20;99.90;;;;;;4906168;29;20459;-81
2024/01/30 00:28:18;;;;;;;16.95;14.18;;;7.10;99.90;;;;;;4887702;29;20158;-81
2024/01/30 00:30:44;;;;;;;19.60;15.15;;;7.20;99.90;;;;;;4888365;29;20510;-81
2024/01/30 00:33:09;;;;;;;17.30;14.23;;;7.20;99.90;;;;;;4887617;29;20124;-81
2024/01/30 00:35:35;;;;;;;16.48;13.05;;;7.20;99.90;;;;;;4914855;29;20040;-81
2024/01/30 00:38:01;;;;;;;18.73;13.93;;;7.20;99.90;;;;;;4899435;29;20506;-82
2024/01/30 00:40:26;;;;;;;17.38;14.48;;;7.20;99.90;;;;;;4917186;29;20052;-81
2024/01/30 00:42:52;;;;;;;21.52;13.60;;;7.10;99.90;;;;;;4901132;29;20072;-80
2024/01/30 00:45:18;;;;;;;15.35;13.75;;;7.10;99.90;;;;;;4918036;29;20048;-81
2024/01/30 00:47:44;;;;;;;15.98;13.88;;;7.10;99.90;;;;;;4900428;29;20407;-81
2024/01/30 00:50:10;;;;;;;18.17;14.02;;;7.00;99.90;;;;;;4918015;29;20522;-82
2024/01/30 00:52:35;;;;;;;16.08;14.38;;;7.00;99.90;;;;;;4915230;29;20044;-82
2024/01/30 00:55:01;;;;;;;15.90;13.43;;;7.00;99.90;;;;;;4883832;29;21992;-82
2024/01/30 00:57:27;;;;;;;18.95;14.65;;;7.00;99.90;;;;;;4899774;29;20040;-82
2024/01/30 00:59:53;;;;;;;16.80;13.88;;;7.10;99.90;;;;;;4916837;29;20435;-82
2024/01/30 01:02:18;;;;;;;16.98;13.90;;;7.10;99.90;;;;;;4916678;29;20052;-81
2024/01/30 01:04:44;;;;;;;16.25;13.23;;;7.00;99.90;;;;;;4902176;29;20113;-81
2024/01/30 01:07:11;;;;;;;16.70;13.82;;;7.00;99.90;;;;;;4912867;29;20068;-82
2024/01/30 01:09:36;;;;;;;18.50;13.95;;;7.20;99.90;;;;;;4916673;29;20044;-82
2024/01/30 01:12:03;;;;;;;14.63;12.98;;;7.10;99.90;;;;;;4914878;29;20400;-82
2024/01/30 01:14:29;;;;;;;16.88;13.77;;;7.10;99.90;;;;;;4894647;29;20060;-82
2024/01/30 01:16:54;;;;;;;15.90;14.13;;;7.10;99.90;;;;;;4914702;29;20490;-82
2024/01/30 01:19:20;;;;;;;16.92;14.45;;;7.10;99.90;;;;;;4908466;29;20056;-82
2024/01/30 01:21:46;;;;;;;20.73;14.40;;;7.10;99.90;;;;;;4883545;29;20050;-82
2024/01/30 01:24:11;;;;;;;17.05;13.32;;;7.00;99.90;;;;;;4916713;29;20140;-82
2024/01/30 01:26:37;;;;;;;17.05;13.77;;;7.00;99.90;;;;;;4912544;29;20045;-82
2024/01/30 01:29:09;;;;;;;15.27;13.68;;;7.00;99.90;;;;;;4893371;29;20051;-82
2024/01/30 01:31:44;;;;;;;17.75;13.73;;;7.00;99.90;;;;;;4891531;29;20059;-82
2024/01/30 01:34:13;;;;;;;16.75;13.70;;;7.00;99.90;;;;;;4917749;29;20459;-82
2024/01/30 01:36:39;;;;;;;17.13;13.35;;;7.00;99.90;;;;;;4902394;29;20067;-81
2024/01/30 01:39:05;;;;;;;19.70;13.45;;;6.90;99.90;;;;;;4886429;29;20100;-81
2024/01/30 01:41:34;;;;;;;16.77;13.45;;;6.90;99.90;;;;;;4905002;29;20411;-82
2024/01/30 01:44:00;;;;;;;16.77;13.77;;;6.90;99.90;;;;;;4923029;29;21335;-81
2024/01/30 01:46:27;;;;;;;15.60;13.20;;;6.90;99.90;;;;;;4902877;29;20056;-81
2024/01/30 01:48:54;;;;;;;17.90;13.57;;;6.90;99.90;;;;;;4921875;29;20045;-81
2024/01/30 01:51:21;;;;;;;16.17;13.60;;;6.90;99.90;;;;;;4900542;29;20136;-81
2024/01/30 01:53:47;;;;;;;16.58;13.32;;;6.90;99.90;;;;;;4923138;29;20533;-82
2024/01/30 01:56:13;;;;;;;15.82;13.68;;;6.90;99.90;;;;;;4918406;29;20115;-81
2024/01/30 01:58:38;;;;;;;15.88;13.00;;;6.90;99.90;;;;;;4903743;29;20491;-81
2024/01/30 02:01:05;;;;;;;15.60;13.07;;;6.90;99.90;;;;;;4920888;29;20419;-82
2024/01/30 02:03:30;;;;;;;15.52;13.73;;;6.90;99.90;;;;;;4922180;29;20056;-82
2024/01/30 02:05:56;;;;;;;16.80;13.43;;;6.90;99.90;;;;;;4903897;29;20050;-82
2024/01/30 02:08:25;;;;;;;16.15;13.43;;;6.90;99.90;;;;;;4903997;29;20044;-82
2024/01/30 02:10:51;;;;;;;17.10;13.52;;;6.80;99.90;;;;;;4905642;29;20040;-82
2024/01/30 02:13:17;;;;;;;16.75;13.10;;;6.80;99.90;;;;;;4923179;29;20032;-82
2024/01/30 02:15:42;;;;;;;15.65;13.68;;;6.80;99.90;;;;;;4921764;29;20051;-81
2024/01/30 02:18:08;;;;;;;18.85;14.43;;;6.80;99.90;;;;;;4923470;29;20048;-82
2024/01/30 02:20:35;;;;;;;17.83;13.75;;;6.70;99.90;;;;;;4925679;29;20039;-82
2024/01/30 02:23:02;;;;;;;15.60;13.97;;;6.80;99.90;;;;;;4924748;29;20048;-82
2024/01/30 02:25:32;;;;;;;19.85;13.98;;;6.70;99.90;;;;;;4922738;29;20044;-81
2024/01/30 02:27:58;;;;;;;15.50;13.63;;;6.80;99.90;;;;;;4917962;29;20045;-82
2024/01/30 02:30:23;;;;;;;15.90;13.63;;;6.90;99.90;;;;;;4907549;29;20054;-81
2024/01/30 02:32:49;;;;;;;15.93;13.02;;;6.80;99.90;;;;;;4921778;29;21957;-81
2024/01/30 02:35:15;;;;;;;16.98;14.20;;;6.80;99.90;;;;;;4920384;29;20036;-81
2024/01/30 02:37:40;;;;;;;17.70;13.43;;;6.80;99.90;;;;;;4903826;29;20039;-81
2024/01/30 02:40:07;;;;;;;17.80;13.05;;;6.80;99.90;;;;;;4915623;29;20473;-82
2024/01/30 02:42:32;;;;;;;15.88;13.50;;;6.70;99.90;;;;;;4919399;29;20044;-81
2024/01/30 02:44:58;;;;;;;16.45;12.98;;;6.80;99.90;;;;;;4896858;29;20096;-81
2024/01/30 02:47:23;;;;;;;18.85;14.27;;;6.80;99.90;;;;;;4915345;29;20052;-81
2024/01/30 02:49:49;;;;;;;19.17;13.38;;;6.70;99.90;;;;;;4918067;29;20533;-81
2024/01/30 02:52:14;;;;;;;18.67;14.73;;;6.60;99.90;;;;;;4917034;29;20091;-81
2024/01/30 02:54:40;;;;;;;14.88;13.23;;;6.70;99.90;;;;;;4924608;29;20046;-81
2024/01/30 02:57:06;;;;;;;15.63;13.82;;;6.60;99.90;;;;;;4916820;29;20088;-81
2024/01/30 02:59:33;;;;;;;15.40;13.27;;;6.70;99.90;;;;;;4918450;29;20435;-81
2024/01/30 03:01:59;;;;;;;15.67;13.97;;;6.70;99.90;;;;;;4924527;29;20076;-81
2024/01/30 03:04:24;;;;;;;18.02;14.43;;;6.60;99.90;;;;;;4889275;29;20305;-81
2024/01/30 03:06:50;;;;;;;16.73;14.00;;;6.60;99.90;;;;;;4920129;29;20058;-82
2024/01/30 03:09:17;;;;;;;16.92;14.00;;;6.70;99.90;;;;;;4883056;29;20040;-82
2024/01/30 03:11:43;;;;;;;16.77;14.18;;;6.80;99.90;;;;;;4903374;29;20048;-81
2024/01/30 03:14:10;;;;;;;16.80;13.65;;;6.80;99.90;;;;;;4917298;29;20364;-81
2024/01/30 03:16:37;;;;;;;17.30;13.60;;;6.80;99.90;;;;;;4884407;29;20048;-81
2024/01/30 03:19:05;;;;;;;16.65;13.15;;;6.90;99.90;;;;;;4914929;29;20040;-81
2024/01/30 03:21:30;;;;;;;17.50;13.67;;;6.80;99.90;;;;;;4917319;29;20070;-81
2024/01/30 03:23:56;;;;;;;16.63;13.65;;;6.90;99.90;;;;;;4918416;29;20032;-81
2024/01/30 03:26:22;;;;;;;18.25;14.35;;;6.90;99.90;;;;;;4886617;29;20371;-81
2024/01/30 03:28:47;;;;;;;15.18;12.82;;;6.90;99.90;;;;;;4904758;29;20044;-81
2024/01/30 03:31:15;;;;;;;18.65;13.48;;;6.90;99.90;;;;;;4916686;29;20040;-81
2024/01/30 03:33:41;;;;;;;16.85;13.55;;;6.90;99.90;;;;;;4895397;29;20115;-81
2024/01/30 03:36:08;;;;;;;15.80;13.50;;;6.90;99.90;;;;;;4917426;29;20044;-80
2024/01/30 03:38:34;;;;;;;15.73;13.85;;;6.90;99.90;;;;;;4918960;29;20039;-81
2024/01/30 03:41:00;;;;;;;19.65;13.75;;;6.80;99.90;;;;;;4899211;29;20841;-81
2024/01/30 03:43:26;;;;;;;15.52;13.32;;;6.80;99.90;;;;;;4919732;29;20048;-80
2024/01/30 03:45:52;;;;;;;16.08;13.63;;;6.80;99.90;;;;;;4918262;29;20123;-79
2024/01/30 03:48:18;;;;;;;17.23;14.18;;;6.80;99.90;;;;;;4916538;29;20043;-79
2024/01/30 03:50:43;;;;;;;16.88;14.27;;;6.90;99.90;;;;;;4910493;29;20127;-81
2024/01/30 03:53:09;;;;;;;17.33;14.32;;;6.90;99.90;;;;;;4909104;29;20179;-81
2024/01/30 03:55:34;;;;;;;17.35;14.10;;;6.90;99.90;;;;;;4896754;29;20115;-81
2024/01/30 03:58:00;;;;;;;15.48;13.88;;;6.90;99.90;;;;;;4916921;29;20101;-81
2024/01/30 04:00:26;;;;;;;17.65;14.88;;;6.90;99.90;;;;;;4917473;29;20078;-81
2024/01/30 04:02:51;;;;;;;17.73;14.50;;;7.00;99.90;;;;;;4923443;29;20059;-81
2024/01/30 04:05:17;;;;;;;16.38;14.50;;;7.00;99.90;;;;;;4904421;29;20044;-81
2024/01/30 04:07:43;;;;;;;18.98;14.70;;;7.00;99.90;;;;;;4920979;29;20499;-81
2024/01/30 04:10:09;;;;;;;15.40;13.80;;;7.00;99.90;;;;;;4899184;29;20440;-81
2024/01/30 04:12:35;;;;;;;19.35;14.82;;;7.00;99.90;;;;;;4921898;29;20050;-81
2024/01/30 04:15:02;;;;;;;17.38;14.38;;;7.10;99.90;;;;;;4906081;29;20406;-82
2024/01/30 04:17:28;;;;;;;18.08;14.63;;;7.20;99.90;;;;;;4887330;29;20435;-81
2024/01/30 04:19:54;;;;;;;19.17;14.85;;;7.20;99.90;;;;;;4897590;29;20062;-80
2024/01/30 04:22:20;;;;;;;18.20;14.90;;;7.10;99.90;;;;;;4915174;29;20509;-80
2024/01/30 04:24:46;;;;;;;17.75;14.93;;;7.10;99.90;;;;;;4897777;29;20048;-80
2024/01/30 04:27:12;;;;;;;17.08;15.23;;;7.10;99.90;;;;;;4898828;29;20123;-80
2024/01/30 04:29:38;;;;;;;17.40;14.15;;;7.10;99.90;;;;;;4895115;29;20040;-80
2024/01/30 04:32:04;;;;;;;16.08;14.20;;;7.10;99.90;;;;;;4898046;29;20112;-80
2024/01/30 04:34:29;;;;;;;19.30;15.15;;;7.00;99.90;;;;;;4920003;29;20236;-80
2024/01/30 04:36:55;;;;;;;17.60;14.25;;;7.50;99.90;;;;;;4915309;29;20558;-80
2024/01/30 04:39:20;;;;;;;16.80;14.55;;;7.30;99.90;;;;;;4914349;29;20044;-80
2024/01/30 04:41:46;;;;;;;17.00;13.77;;;7.40;99.90;;;;;;4916935;29;20046;-80
2024/01/30 04:44:12;;;;;;;17.98;14.35;;;7.30;99.90;;;;;;4921923;29;20044;-79
2024/01/30 04:46:37;;;;;;;20.35;14.23;;;7.40;99.90;;;;;;4910199;29;20472;-80
2024/01/30 04:49:03;;;;;;;17.15;14.48;;;7.40;99.90;;;;;;4917845;29;20052;-80
2024/01/30 04:51:29;;;;;;;17.38;14.20;;;7.30;99.90;;;;;;4919055;29;20397;-80
2024/01/30 04:53:55;;;;;;;16.90;14.88;;;7.30;99.90;;;;;;4913927;29;20091;-80
2024/01/30 04:56:21;;;;;;;18.73;14.38;;;7.30;99.90;;;;;;4895134;29;21895;-80
2024/01/30 04:58:47;;;;;;;21.50;14.98;;;7.40;99.90;;;;;;4912359;29;20048;-80
2024/01/30 05:01:16;;;;;;;20.08;14.43;;;;;;;;;;4912402;29;20056;-80
2024/01/30 05:03:42;;;;;;;18.05;14.70;;;7.70;99.90;;;;;;4914699;29;20060;-80
2024/01/30 05:06:07;;;;;;;16.55;14.50;;;7.60;99.90;;;;;;4913523;29;20715;-80
2024/01/30 05:08:36;;;;;;;19.05;15.40;;;7.40;99.90;;;;;;4915676;29;20047;-80
2024/01/30 05:11:03;;;;;;;19.67;15.38;;;7.40;99.90;;;;;;4922192;29;20051;-80
2024/01/30 05:13:30;;;;;;;19.25;14.68;;;7.30;99.90;;;;;;4913557;29;20403;-80
2024/01/30 05:15:56;;;;;;;17.17;14.65;;;7.30;99.90;;;;;;4916872;29;20501;-80
2024/01/30 05:18:21;;;;;;;18.58;14.70;;;7.30;99.90;;;;;;4882447;29;20052;-80
2024/01/30 05:20:47;;;;;;;16.88;15.07;;;7.30;99.90;;;;;;4921459;29;20035;-80
2024/01/30 05:23:13;;;;;;;16.60;13.85;;;7.40;99.90;;;;;;4915866;29;20044;-80
2024/01/30 05:25:38;;;;;;;19.17;14.48;;;7.30;99.90;;;;;;4889703;29;20044;-81
2024/01/30 05:28:04;;;;;;;17.85;14.88;;;7.40;99.90;;;;;;4917420;29;20048;-81
2024/01/30 05:30:30;;;;;;;16.27;14.30;;;7.50;99.90;;;;;;4915441;29;20072;-80
2024/01/30 05:32:55;;;;;;;20.60;14.88;;;7.40;99.90;;;;;;4918385;29;20044;-80
2024/01/30 05:35:21;;;;;;;18.02;14.43;;;7.40;99.90;;;;;;4906496;29;20048;-80
2024/01/30 05:37:49;;;;;;;19.52;15.07;;;7.60;99.90;;;;;;4916916;29;20044;-80
2024/01/30 05:40:14;;;;;;;21.02;14.90;;;7.40;99.90;;;;;;4918724;29;20071;-80
2024/01/30 05:42:40;;;;;;;18.00;14.85;;;7.40;99.90;;;;;;4917663;29;20052;-81
2024/01/30 05:45:06;;;;;;;15.82;13.85;;;7.40;99.90;;;;;;4922392;29;20040;-81
2024/01/30 05:47:32;;;;;;;16.20;14.07;;;7.40;99.90;;;;;;4920752;29;20399;-82
2024/01/30 05:49:57;;;;;;;17.30;14.15;;;7.40;99.90;;;;;;4918483;29;20040;-82
2024/01/30 05:52:23;;;;;;;17.60;14.45;;;7.40;99.90;;;;;;4918233;29;20515;-82
2024/01/30 05:54:48;;;;;;;17.52;13.80;;;7.40;99.90;;;;;;4919684;29;20044;-81
2024/01/30 05:57:14;;;;;;;16.23;13.75;;;7.40;99.90;;;;;;4917563;29;20095;-81
2024/01/30 05:59:40;;;;;;;17.90;15.10;;;7.40;99.90;;;;;;4902895;29;20159;-82
2024/01/30 06:02:05;;;;;;;19.65;14.45;;;7.40;99.90;;;;;;4919707;29;20058;-81
2024/01/30 06:04:31;;;;;;;17.88;14.70;;;7.40;99.90;;;;;;4919002;29;20056;-81
2024/01/30 06:06:56;;;;;;;18.88;14.52;;;7.40;99.90;;;;;;4918631;29;20052;-79
2024/01/30 06:09:22;;;;;;;16.90;14.57;;;7.40;99.90;;;;;;4910511;29;20052;-81
2024/01/30 06:11:47;;;;;;;16.02;13.57;;;7.50;99.90;;;;;;4909983;29;20048;-81
2024/01/30 06:14:13;;;;;;;17.00;13.77;;;7.50;99.90;;;;;;4917031;29;20044;-81
2024/01/30 06:16:39;;;;;;;17.15;13.63;;;7.50;99.90;;;;;;4911504;29;20443;-81
2024/01/30 06:19:05;;;;;;;17.75;14.18;;;7.50;99.90;;;;;;4912449;29;20051;-81
2024/01/30 06:21:32;;;;;;;17.60;14.88;;;7.60;99.90;;;;;;4899617;29;20055;-82
2024/01/30 06:23:57;;;;;;;15.93;13.70;;;7.60;99.90;;;;;;4911234;29;20094;-82
2024/01/30 06:26:23;;;;;;;15.60;13.75;;;7.60;99.90;;;;;;4914472;29;20145;-81
2024/01/30 06:28:49;;;;;;;15.70;14.00;;;7.70;99.90;;;;;;4895316;29;20083;-80
2024/01/30 06:31:14;;;;;;;19.85;14.43;;;7.70;99.90;;;;;;4879557;29;20036;-80
2024/01/30 06:33:42;;;;;;;17.10;13.77;;;7.70;99.90;;;;;;4916068;29;20048;-80
2024/01/30 06:36:07;;;;;;;17.35;14.27;;;7.70;99.90;;;;;;4916060;29;20103;-80
2024/01/30 06:38:33;;;;;;;15.48;13.90;;;7.60;99.90;;;;;;4917805;29;20032;-80
2024/01/30 06:40:59;;;;;;;16.20;13.93;;;7.60;99.90;;;;;;4916961;29;20056;-80
2024/01/30 06:43:24;;;;;;;15.60;13.35;;;7.60;99.90;;;;;;4905127;29;20532;-79
2024/01/30 06:45:51;;;;;;;16.88;13.93;;;7.70;99.90;;;;;;4920221;29;20495;-80
2024/01/30 06:48:17;;;;;;;15.57;13.87;;;7.70;99.90;;;;;;4906005;29;20079;-80
2024/01/30 06:50:42;;;;;;;16.50;13.50;;;7.70;99.90;;;;;;4901240;29;20833;-80
2024/01/30 06:53:08;;;;;;;15.45;13.40;;;7.60;99.90;;;;;;4886301;29;20052;-80
2024/01/30 06:55:34;;;;;;;16.30;13.80;;;7.60;99.90;;;;;;4924808;29;20048;-80
2024/01/30 06:57:59;;;;;;;16.70;14.35;;;7.60;99.90;;;;;;4922230;29;20443;-81
2024/01/30 07:00:25;;;;;;;15.27;13.63;;;7.70;99.90;;;;;;4920812;29;20506;-80
2024/01/30 07:02:51;;;;;;;16.95;13.48;;;7.70;99.90;;;;;;4919439;29;20052;-80
2024/01/30 07:05:17;;;;;;;17.75;14.05;;;7.70;99.90;;;;;;4903020;29;20371;-80
2024/01/30 07:07:43;;;;;;;16.15;13.75;;;7.60;99.90;;;;;;4902645;29;20491;-79
2024/01/30 07:10:08;;;;;;;15.25;13.52;;;7.60;99.90;;;;;;4923438;29;20047;-79
2024/01/30 07:12:34;;;;;;;16.65;13.02;;;7.60;99.90;;;;;;4883594;29;20546;-80
2024/01/30 07:15:00;;;;;;;17.13;13.55;;;7.70;99.90;;;;;;4903023;29;20060;-80
2024/01/30 07:17:25;;;;;;;14.93;13.32;;;7.70;99.90;;;;;;4922293;29;20127;-80
2024/01/30 07:19:54;;;;;;;14.30;12.82;;;7.70;99.90;;;;;;4907231;29;20052;-80
2024/01/30 07:22:19;;;;;;;15.55;13.05;;;7.70;99.90;;;;;;4886800;29;20479;-80
2024/01/30 07:24:47;;;;;;;15.35;12.90;;;7.70;99.90;;;;;;4902957;29;20044;-79
2024/01/30 07:27:13;;;;;;;15.48;13.20;;;7.80;99.90;;;;;;4919523;29;20048;-80
2024/01/30 07:29:38;;;;;;;16.30;12.57;;;7.80;99.90;;;;;;4916007;29;20487;-79
2024/01/30 07:32:04;;;;;;;15.93;13.27;;;7.90;99.90;;;;;;4885235;29;20055;-81
2024/01/30 07:34:30;;;;;;;14.52;12.68;;;7.90;99.90;;;;;;4897055;29;20040;-80
2024/01/30 07:36:55;;;;;;;14.10;12.40;;;7.90;99.90;;;;;;4912555;29;20032;-79
2024/01/30 07:39:21;;;;;;;17.52;12.95;;;7.90;99.90;;;;;;4917547;29;20052;-79
2024/01/30 07:41:47;;;;;;;13.27;11.98;;;7.90;99.90;;;;;;4888475;29;20055;-79
2024/01/30 07:44:12;;;;;;;15.77;12.68;;;8.00;99.90;;;;;;4913502;29;20035;-80
2024/01/30 07:46:38;;;;;;;15.10;12.30;;;8.00;99.90;;;;;;4917701;29;20047;-80
2024/01/30 07:49:03;;;;;;;13.82;12.38;;;8.00;99.90;;;;;;4910415;29;20055;-80
2024/01/30 07:51:31;;;;;;;13.85;12.02;;;8.00;99.90;;;;;;4909083;29;20516;-79
2024/01/30 07:53:57;;;;;;;13.60;12.10;;;8.00;99.90;;;;;;4920324;29;20048;-79
2024/01/30 07:56:23;;;;;;;16.10;12.77;;;8.00;99.90;;;;;;4917639;29;20052;-78
2024/01/30 07:58:49;;;;;;;14.00;12.45;;;8.00;99.90;;;;;;4924566;29;20048;-78
2024/01/30 08:01:15;;;;;;;15.90;12.27;;;8.00;99.90;;;;;;4911142;29;20056;-79
2024/01/30 08:03:41;;;;;;;15.40;12.43;;;8.00;99.90;;;;;;4885916;29;20059;-79
2024/01/30 08:06:07;;;;;;;14.82;12.20;;;8.00;99.90;;;;;;4918706;29;20062;-79
2024/01/30 08:08:33;;;;;;;15.32;12.55;;;8.00;99.90;;;;;;4920083;29;20047;-79
2024/01/30 08:10:58;;;;;;;14.02;12.18;;;8.00;99.90;;;;;;4917554;29;20443;-79
2024/01/30 08:13:24;;;;;;;15.13;12.18;;;8.00;99.90;;;;;;4883997;29;20126;-79
2024/01/30 08:15:49;;;;;;;13.52;12.10;;;8.00;99.90;;;;;;4915284;29;20044;-79
2024/01/30 08:18:15;;;;;;;14.07;12.45;;;8.00;99.90;;;;;;4919710;29;20106;-79
2024/01/30 08:20:41;;;;;;;14.73;12.05;;;8.10;99.90;;;;;;4912903;29;20044;-80
2024/01/30 08:23:06;;;;;;;14.80;12.15;;;8.10;99.90;;;;;;4910940;29;20040;-80
2024/01/30 08:25:32;;;;;;;14.70;11.65;;;8.10;99.90;;;;;;4917774;29;20036;-80
2024/01/30 08:27:58;;;;;;;13.88;12.13;;;8.20;99.90;;;;;;4897321;29;20479;-80
2024/01/30 08:30:23;;;;;;;14.13;12.13;;;8.20;99.90;;;;;;4918173;29;20109;-81
2024/01/30 08:32:49;;;;;;;14.23;12.02;;;8.30;99.90;;;;;;4914909;29;20056;-76
2024/01/30 08:35:15;;;;;;;13.10;11.75;;;8.30;99.90;;;;;;4914153;29;20036;-76
2024/01/30 08:37:41;;;;;;;13.65;11.70;;;8.30;99.90;;;;;;4912291;29;20047;-78
2024/01/30 08:40:08;;;;;;;13.07;11.25;;;8.40;99.90;;;;;;4909859;29;20063;-76
2024/01/30 08:42:34;;;;;;;17.98;10.90;;;8.40;99.90;;;;;;4891819;29;20036;-76
2024/01/30 08:44:59;;;;;;;16.20;10.98;;;8.40;99.90;;;;;;4899694;29;20099;-78
2024/01/30 08:47:25;;;;;;;14.68;11.32;;;8.40;99.90;;;;;;4917285;29;20051;-78
2024/01/30 08:49:51;;;;;;;12.93;11.60;;;8.50;99.90;;;;;;4894563;29;20132;-78
2024/01/30 08:52:17;;;;;;;16.42;12.10;;;8.50;99.90;;;;;;4892260;29;20047;-77
2024/01/30 08:54:43;;;;;;;13.35;11.57;;;8.60;99.90;;;;;;4904920;29;20396;-77
2024/01/30 08:57:08;;;;;;;16.42;10.93;;;8.60;99.90;;;;;;4896506;29;20040;-76
2024/01/30 08:59:34;;;;;;;14.43;11.30;;;8.70;99.90;;;;;;4914305;29;20040;-76
2024/01/30 09:02:00;;;;;;;14.50;11.18;;;8.70;99.90;;;;;;4894904;29;20052;-76
2024/01/30 09:04:25;;;;;;;12.93;11.63;;;8.80;99.90;;;;;;4891136;29;20066;-77
2024/01/30 09:06:51;;;;;;;12.43;10.77;;;8.80;99.90;;;;;;4912466;29;20044;-77
2024/01/30 09:09:17;;;;;;;12.75;10.60;;;8.90;99.90;;;;;;4895763;29;20070;-78
2024/01/30 09:11:46;;;;;;;12.52;10.70;;;8.90;99.90;;;;;;4911901;29;20092;-77
2024/01/30 09:14:11;;;;;;;12.90;10.43;;;8.90;99.90;;;;;;4908342;29;20075;-77
2024/01/30 09:16:37;;;;;;;15.32;11.15;;;8.90;99.90;;;;;;4911124;29;20044;-76
2024/01/30 09:19:03;;;;;;;12.32;10.32;;;8.90;99.90;;;;;;4911152;29;20043;-77
2024/01/30 09:21:28;;;;;;;15.90;11.20;;;8.90;99.90;;;;;;4903654;29;20044;-77
2024/01/30 09:24:01;;;;;;;13.10;10.05;;;8.90;99.90;;;;;;4914328;29;20514;-77
2024/01/30 09:26:26;;;;;;;13.40;10.48;;;8.90;99.90;;;;;;4902384;29;20048;-77
2024/01/30 09:28:52;;;;;;;14.95;10.77;;;8.90;99.90;;;;;;4896256;29;20135;-77
2024/01/30 09:31:17;;;;;;;12.63;9.95;;;9.00;99.90;;;;;;4913179;29;20510;-77
2024/01/30 09:33:44;;;;;;;12.05;10.35;;;9.00;99.90;;;;;;4913194;29;20057;-77
2024/01/30 09:36:09;;;;;;;11.93;10.40;;;9.10;99.90;;;;;;4897955;29;20075;-77
2024/01/30 09:38:35;;;;;;;11.15;10.05;;;9.20;99.90;;;;;;4883856;29;20475;-77
2024/01/30 09:41:07;;;;;;;11.85;10.18;;;9.30;99.90;;;;;;4914162;29;20044;-77
2024/01/30 09:43:36;;;;;;;11.93;10.40;;;9.30;99.90;;;;;;4900132;29;20047;-77
2024/01/30 09:46:03;;;;;;;10.77;9.52;;;9.40;99.90;;;;;;4916782;29;20044;-77
2024/01/30 09:48:30;;;;;;;13.35;10.50;;;9.40;99.90;;;;;;4898277;29;20543;-77
2024/01/30 09:50:57;;;;;;;11.17;9.70;;;9.40;99.90;;;;;;4916495;29;20475;-77
2024/01/30 09:53:23;;;;;;;12.00;9.88;;;9.50;99.90;;;;;;4919129;29;20183;-76
2024/01/30 09:55:50;;;;;;;13.13;10.40;;;9.50;99.90;;;;;;4901905;29;20152;-77
2024/01/30 09:58:16;;;;;;;13.10;10.75;;;9.50;99.90;;;;;;4923782;29;20048;-78
2024/01/30 10:00:42;;;;;;;12.02;9.93;;;9.50;99.90;;;;;;4919885;29;20047;-77
2024/01/30 10:03:08;;;;;;;12.07;10.05;;;9.50;99.90;;;;;;4901244;29;20499;-77
2024/01/30 10:05:37;;;;;;;13.98;10.40;;;9.60;99.90;;;;;;4879648;29;20061;-76
2024/01/30 10:08:08;;;;;;;16.40;10.02;;;9.70;99.90;;;;;;4902575;29;20043;-77
2024/01/30 10:10:34;;;;;;;11.50;10.15;;;9.70;99.90;;;;;;4899105;29;20055;-77
2024/01/30 10:13:00;;;;;;;11.27;10.07;;;9.80;99.90;;;;;;4902530;29;20044;-77
2024/01/30 10:15:28;;;;;;;11.70;10.25;;;9.90;99.90;;;;;;4916591;29;20048;-75
2024/01/30 10:17:54;;;;;;;;;;;9.90;99.90;;;;;;4919641;29;20092;-77
2024/01/30 10:20:22;;;;;;;13.13;11.00;;;9.90;99.90;;;;;;4919601;29;19923;-76
2024/01/30 10:22:48;;;;;;;;;;;9.90;99.90;;;;;;4919819;29;20503;-76
2024/01/30 10:25:14;;;;;;;15.18;10.50;;;9.90;99.90;;;;;;4918829;29;19955;-76
2024/01/30 10:27:40;;;;;;;12.40;10.27;;;10.00;99.90;;;;;;4912946;29;20095;-77
2024/01/30 10:30:07;;;;;;;11.63;10.43;;;10.00;99.90;;;;;;4882526;29;20044;-77
2024/01/30 10:32:33;;;;;;;15.90;10.77;;;10.10;99.90;;;;;;4926912;29;20395;-77
2024/01/30 10:34:58;;;;;;;14.65;11.07;;;10.20;99.90;;;;;;4935229;29;20047;-77
2024/01/30 10:37:26;;;;;;;14.13;9.88;;;10.30;99.90;;;;;;4911749;29;20041;-77
2024/01/30 10:39:55;;;;;;;11.88;9.90;;;10.30;99.90;;;;;;4893957;29;20080;-77
2024/01/30 10:42:23;;;;;;;12.52;11.15;;;10.30;99.90;;;;;;4920577;29;20048;-78
2024/01/30 10:45:13;;;;;;;;;;;10.30;99.90;;;;;;4918753;29;20513;-77
2024/01/30 10:47:58;;;;;;;12.23;9.48;;;10.20;99.90;;;;;;4902339;29;20283;-77
2024/01/30 10:50:28;;;;;;;14.07;10.48;;;10.30;99.90;;;;;;4908396;29;20495;-77
2024/01/30 10:52:55;;;;;;;13.82;10.13;;;10.40;99.90;;;;;;4918508;29;20044;-77
2024/01/30 10:55:22;;;;;;;13.00;10.13;;;10.40;99.90;;;;;;4919599;29;20048;-77
2024/01/30 10:57:47;;;;;;;12.98;9.75;;;10.40;99.90;;;;;;4902342;29;20161;-77
2024/01/30 11:00:15;;;;;;;13.23;9.93;;;10.40;99.90;;;;;;4920252;29;20549;-77
2024/01/30 11:02:45;;;;;;;12.38;10.13;;;10.40;99.90;;;;;;4922330;29;20127;-77
2024/01/30 11:05:12;;;;;;;13.75;10.45;;;10.40;99.90;;;;;;4918516;29;20052;-77
2024/01/30 11:07:41;;;;;;;11.05;9.50;;;10.40;99.90;;;;;;4918186;29;20131;-78
2024/01/30 11:10:09;;;;;;;13.63;9.35;;;10.40;99.90;;;;;;4901943;29;20470;-77
2024/01/30 11:12:40;;;;;;;;;;;10.40;99.90;;;;;;4918740;29;20551;-77
2024/01/30 11:15:11;;;;;;;15.77;9.57;;;10.40;99.90;;;;;;4933386;29;19958;-77
2024/01/30 11:17:45;;;;;;;13.65;10.07;;;10.40;99.90;;;;;;4921605;29;20446;-76
2024/01/30 11:20:12;;;;;;;13.02;10.20;;;10.50;99.90;;;;;;4901898;29;20060;-77
2024/01/30 11:22:37;;;;;;;15.15;10.13;;;10.50;99.90;;;;;;4899340;29;20048;-77
2024/01/30 11:25:04;;;;;;;14.27;10.68;;;10.50;99.90;;;;;;4898600;29;20044;-78
2024/01/30 11:27:31;;;;;;;14.27;10.27;;;10.50;99.90;;;;;;4915327;29;20125;-77
2024/01/30 11:30:04;;;;;;;15.38;10.90;;;10.60;99.90;;;;;;4918608;29;20051;-79
2024/01/30 11:32:29;;;;;;;13.18;10.07;;;10.60;99.90;;;;;;4917196;29;20044;-78
2024/01/30 11:34:56;;;;;;;13.23;10.10;;;10.70;99.90;;;;;;4918258;29;20403;-78
2024/01/30 11:37:24;;;;;;;11.70;10.50;;;10.80;99.90;;;;;;4913288;29;20123;-78
2024/01/30 11:39:51;;;;;;;13.68;10.48;;;10.80;99.90;;;;;;4903080;29;20075;-78
2024/01/30 11:42:17;;;;;;;14.70;10.85;;;10.80;99.90;;;;;;4898198;29;20123;-77
2024/01/30 11:44:47;;;;;;;12.93;10.68;;;10.80;99.90;;;;;;4902530;29;20532;-78
2024/01/30 11:47:13;;;;;;;12.75;10.35;;;10.80;99.90;;;;;;4901185;29;20391;-77
2024/01/30 11:49:39;;;;;;;13.90;10.48;;;10.80;99.90;;;;;;4918988;29;20056;-77
2024/01/30 11:52:05;;;;;;;16.10;9.88;;;10.80;99.90;;;;;;4898889;29;20608;-77
2024/01/30 11:54:30;;;;;;;15.35;10.57;;;10.90;99.90;;;;;;4916902;29;20048;-77
2024/01/30 11:56:56;;;;;;;14.13;9.80;;;10.90;99.90;;;;;;4915882;29;20050;-78
2024/01/30 11:59:21;;;;;;;18.17;10.63;;;10.90;99.90;;;;;;4885163;29;20048;-77
2024/01/30 12:01:47;;;;;;;16.10;10.25;;;10.80;99.90;;;;;;4915374;29;20044;-77
2024/01/30 12:04:13;;;;;;;13.52;9.88;;;10.80;99.90;;;;;;4917329;29;20132;-77
2024/01/30 12:06:40;;;;;;;20.05;10.20;;;10.80;99.90;;;;;;4899676;29;20040;-77
2024/01/30 12:09:08;;;;;;;14.20;9.85;;;10.90;99.90;;;;;;4900057;29;20052;-78
2024/01/30 12:11:43;;;;;;;19.65;9.57;;;;;;;;;;4922354;29;20052;-77
2024/01/30 12:14:09;;;;;;;18.98;9.30;;;11.00;99.90;;;;;;4901850;29;20115;-78
2024/01/30 12:16:35;;;;;;;12.75;9.65;;;11.00;99.90;;;;;;4916965;29;20111;-78
2024/01/30 12:19:01;;;;;;;16.27;9.38;;;11.10;99.90;;;;;;4885790;29;20048;-78
2024/01/30 12:21:28;;;;;;;12.85;9.02;;;11.10;99.90;;;;;;4900050;29;20044;-77
2024/01/30 12:23:54;;;;;;;11.45;8.77;;;;;;;;;;4900461;29;20126;-77
2024/01/30 12:26:20;;;;;;;15.43;9.15;;;11.30;99.90;;;;;;4918703;29;20071;-78
2024/01/30 12:28:49;;;;;;;16.23;9.25;;;11.40;99.90;;;;;;4903481;29;20495;-77
2024/01/30 12:31:15;;;;;;;24.77;8.85;;;11.50;99.90;;;;;;4913892;29;20048;-77
2024/01/30 12:33:41;;;;;;;12.98;9.25;;;11.60;99.90;;;;;;4917115;29;20048;-77